sensor_id;sensor_type;location;lat;lon;timestamp;temperature;humidity
7792;DHT22;3940;49.892;10.886;2022-09-03T00:00:14;17.70;99.90
7792;DHT22;3940;49.892;10.886;2022-09-03T00:03:17;17.50;99.90
7792;DHT22;3940;49.892;10.886;2022-09-03T00:06:13;17.50;99.90
7792;DHT22;3940;49.892;10.886;2022-09-03T00:09:13;17.40;99.90
7792;DHT22;3940;49.892;10.886;2022-09-03T00:12:09;17.50;99.90
7792;DHT22;3940;49.892;10.886;2022-09-03T00:15:02;17.40;99.90
7792;DHT22;3940;49.892;10.886;2022-09-03T00:17:52;17.60;99.90
7792;DHT22;3940;49.892;10.886;2022-09-03T00:20:42;17.70;99.90
7792;DHT22;3940;49.892;10.886;2022-09-03T00:23:29;17.60;99.90
7792;DHT22;3940;49.892;10.886;2022-09-03T00:26:21;17.50;99.90
7792;DHT22;3940;49.892;10.886;2022-09-03T00:29:14;17.50;99.90
7792;DHT22;3940;49.892;10.886;2022-09-03T00:32:06;17.40;99.90
7792;DHT22;3940;49.892;10.886;2022-09-03T00:34:59;17.30;99.90
7792;DHT22;3940;49.892;10.886;2022-09-03T00:37:45;17.10;99.90
7792;DHT22;3940;49.892;10.886;2022-09-03T00:40:46;16.90;99.90
7792;DHT22;3940;49.892;10.886;2022-09-03T00:47:12;16.60;99.90
7792;DHT22;3940;49.892;10.886;2022-09-03T00:50:08;16.70;99.90
7792;DHT22;3940;49.892;10.886;2022-09-03T00:53:12;16.70;99.90
7792;DHT22;3940;49.892;10.886;2022-09-03T00:56:16;16.70;99.90
7792;DHT22;3940;49.892;10.886;2022-09-03T01:02:23;16.90;99.90
7792;DHT22;3940;49.892;10.886;2022-09-03T01:12:05;16.50;99.90
7792;DHT22;3940;49.892;10.886;2022-09-03T01:15:05;16.40;99.90
7792;DHT22;3940;49.892;10.886;2022-09-03T01:18:14;16.30;99.90
7792;DHT22;3940;49.892;10.886;2022-09-03T01:34:32;16.10;99.90
7792;DHT22;3940;49.892;10.886;2022-09-03T01:37:33;16.10;99.90
7792;DHT22;3940;49.892;10.886;2022-09-03T01:40:32;16.00;99.90
7792;DHT22;3940;49.892;10.886;2022-09-03T01:43:31;16.10;99.90
7792;DHT22;3940;49.892;10.886;2022-09-03T01:46:24;16.30;99.90
7792;DHT22;3940;49.892;10.886;2022-09-03T01:49:30;15.90;99.90
7792;DHT22;3940;49.892;10.886;2022-09-03T01:52:23;15.80;99.90
7792;DHT22;3940;49.892;10.886;2022-09-03T01:58:34;15.90;99.90
7792;DHT22;3940;49.892;10.886;2022-09-03T02:01:25;16.10;99.90
7792;DHT22;3940;49.892;10.886;2022-09-03T02:04:20;16.30;99.90
7792;DHT22;3940;49.892;10.886;2022-09-03T02:07:06;16.10;99.90
7792;DHT22;3940;49.892;10.886;2022-09-03T02:09:50;16.30;99.90
7792;DHT22;3940;49.892;10.886;2022-09-03T02:12:36;16.30;99.90
7792;DHT22;3940;49.892;10.886;2022-09-03T02:15:23;16.00;99.90
7792;DHT22;3940;49.892;10.886;2022-09-03T02:18:14;15.90;99.90
7792;DHT22;3940;49.892;10.886;2022-09-03T02:21:00;15.70;99.90
7792;DHT22;3940;49.892;10.886;2022-09-03T02:23:44;15.60;99.90
7792;DHT22;3940;49.892;10.886;2022-09-03T02:26:29;15.70;99.90
7792;DHT22;3940;49.892;10.886;2022-09-03T02:29:15;15.70;99.90
7792;DHT22;3940;49.892;10.886;2022-09-03T02:32:00;15.60;99.90
7792;DHT22;3940;49.892;10.886;2022-09-03T02:34:45;15.50;99.90
7792;DHT22;3940;49.892;10.886;2022-09-03T02:37:30;15.70;99.90
7792;DHT22;3940;49.892;10.886;2022-09-03T02:40:15;15.90;99.90
7792;DHT22;3940;49.892;10.886;2022-09-03T02:43:01;16.00;99.90
7792;DHT22;3940;49.892;10.886;2022-09-03T02:45:50;15.90;99.90
7792;DHT22;3940;49.892;10.886;2022-09-03T02:48:35;16.00;99.90
7792;DHT22;3940;49.892;10.886;2022-09-03T02:51:20;15.80;99.90
7792;DHT22;3940;49.892;10.886;2022-09-03T02:54:07;15.90;99.90
7792;DHT22;3940;49.892;10.886;2022-09-03T02:56:51;15.80;99.90
7792;DHT22;3940;49.892;10.886;2022-09-03T02:59:36;15.50;99.90
7792;DHT22;3940;49.892;10.886;2022-09-03T03:02:23;15.40;99.90
7792;DHT22;3940;49.892;10.886;2022-09-03T03:05:08;15.40;99.90
7792;DHT22;3940;49.892;10.886;2022-09-03T03:07:56;15.50;99.90
7792;DHT22;3940;49.892;10.886;2022-09-03T03:10:41;15.50;99.90
7792;DHT22;3940;49.892;10.886;2022-09-03T03:13:28;15.70;99.90
7792;DHT22;3940;49.892;10.886;2022-09-03T03:16:14;15.80;99.90
7792;DHT22;3940;49.892;10.886;2022-09-03T03:19:00;15.90;99.90
7792;DHT22;3940;49.892;10.886;2022-09-03T03:21:45;16.10;99.90
7792;DHT22;3940;49.892;10.886;2022-09-03T03:24:29;16.20;99.90
7792;DHT22;3940;49.892;10.886;2022-09-03T03:27:13;16.30;99.90
7792;DHT22;3940;49.892;10.886;2022-09-03T03:29:58;16.40;99.90
7792;DHT22;3940;49.892;10.886;2022-09-03T03:32:42;16.40;99.90
7792;DHT22;3940;49.892;10.886;2022-09-03T03:35:27;16.40;99.90
7792;DHT22;3940;49.892;10.886;2022-09-03T03:38:12;16.40;99.90
7792;DHT22;3940;49.892;10.886;2022-09-03T03:40:57;16.40;99.90
7792;DHT22;3940;49.892;10.886;2022-09-03T03:43:41;16.40;99.90
7792;DHT22;3940;49.892;10.886;2022-09-03T03:46:31;16.40;99.90
7792;DHT22;3940;49.892;10.886;2022-09-03T03:49:16;16.40;99.90
7792;DHT22;3940;49.892;10.886;2022-09-03T03:52:01;16.30;99.90
7792;DHT22;3940;49.892;10.886;2022-09-03T03:54:47;16.30;99.90
7792;DHT22;3940;49.892;10.886;2022-09-03T03:57:33;16.30;99.90
7792;DHT22;3940;49.892;10.886;2022-09-03T04:00:17;16.30;99.90
7792;DHT22;3940;49.892;10.886;2022-09-03T04:03:03;16.30;99.90
7792;DHT22;3940;49.892;10.886;2022-09-03T04:05:57;16.30;99.90
7792;DHT22;3940;49.892;10.886;2022-09-03T04:08:44;16.30;99.90
7792;DHT22;3940;49.892;10.886;2022-09-03T04:11:29;16.30;99.90
7792;DHT22;3940;49.892;10.886;2022-09-03T04:14:14;16.20;99.90
7792;DHT22;3940;49.892;10.886;2022-09-03T04:16:58;16.10;99.90
7792;DHT22;3940;49.892;10.886;2022-09-03T04:19:42;16.10;99.90
7792;DHT22;3940;49.892;10.886;2022-09-03T04:22:27;16.10;99.90
7792;DHT22;3940;49.892;10.886;2022-09-03T04:25:12;16.10;99.90
7792;DHT22;3940;49.892;10.886;2022-09-03T04:27:57;16.00;99.90
7792;DHT22;3940;49.892;10.886;2022-09-03T04:30:41;16.00;99.90
7792;DHT22;3940;49.892;10.886;2022-09-03T04:33:25;16.10;99.90
7792;DHT22;3940;49.892;10.886;2022-09-03T04:36:13;16.00;99.90
7792;DHT22;3940;49.892;10.886;2022-09-03T04:38:59;16.00;99.90
7792;DHT22;3940;49.892;10.886;2022-09-03T04:41:44;16.00;99.90
7792;DHT22;3940;49.892;10.886;2022-09-03T04:44:30;16.00;99.90
7792;DHT22;3940;49.892;10.886;2022-09-03T04:47:14;16.00;99.90
7792;DHT22;3940;49.892;10.886;2022-09-03T04:49:59;16.00;99.90
7792;DHT22;3940;49.892;10.886;2022-09-03T04:52:45;16.10;99.90
7792;DHT22;3940;49.892;10.886;2022-09-03T04:55:34;16.10;99.90
7792;DHT22;3940;49.892;10.886;2022-09-03T04:58:19;16.10;99.90
7792;DHT22;3940;49.892;10.886;2022-09-03T05:01:07;16.10;99.90
7792;DHT22;3940;49.892;10.886;2022-09-03T05:03:52;16.00;99.90
7792;DHT22;3940;49.892;10.886;2022-09-03T05:06:37;16.10;99.90
7792;DHT22;3940;49.892;10.886;2022-09-03T05:09:22;16.10;99.90
7792;DHT22;3940;49.892;10.886;2022-09-03T05:12:06;16.10;99.90
7792;DHT22;3940;49.892;10.886;2022-09-03T05:14:51;16.00;99.90
7792;DHT22;3940;49.892;10.886;2022-09-03T05:17:35;16.00;99.90
7792;DHT22;3940;49.892;10.886;2022-09-03T05:20:21;16.00;99.90
7792;DHT22;3940;49.892;10.886;2022-09-03T05:23:06;16.00;99.90
7792;DHT22;3940;49.892;10.886;2022-09-03T05:26:00;16.00;99.90
7792;DHT22;3940;49.892;10.886;2022-09-03T05:28:46;16.10;99.90
7792;DHT22;3940;49.892;10.886;2022-09-03T05:31:30;16.10;99.90
7792;DHT22;3940;49.892;10.886;2022-09-03T05:34:15;16.10;99.90
7792;DHT22;3940;49.892;10.886;2022-09-03T05:36:59;16.10;99.90
7792;DHT22;3940;49.892;10.886;2022-09-03T05:39:45;16.10;99.90
7792;DHT22;3940;49.892;10.886;2022-09-03T05:42:30;16.20;99.90
7792;DHT22;3940;49.892;10.886;2022-09-03T05:45:15;16.20;99.90
7792;DHT22;3940;49.892;10.886;2022-09-03T05:48:00;16.10;99.90
7792;DHT22;3940;49.892;10.886;2022-09-03T05:50:45;16.20;99.90
7792;DHT22;3940;49.892;10.886;2022-09-03T05:53:33;16.30;99.90
7792;DHT22;3940;49.892;10.886;2022-09-03T05:56:21;16.40;99.90
7792;DHT22;3940;49.892;10.886;2022-09-03T05:59:07;16.40;99.90
7792;DHT22;3940;49.892;10.886;2022-09-03T06:01:52;16.50;99.90
7792;DHT22;3940;49.892;10.886;2022-09-03T06:04:37;16.50;99.90
7792;DHT22;3940;49.892;10.886;2022-09-03T06:07:21;16.70;99.90
7792;DHT22;3940;49.892;10.886;2022-09-03T06:10:06;16.80;99.90
7792;DHT22;3940;49.892;10.886;2022-09-03T06:12:50;16.80;99.90
7792;DHT22;3940;49.892;10.886;2022-09-03T06:15:35;16.80;99.90
7792;DHT22;3940;49.892;10.886;2022-09-03T06:18:19;17.00;99.90
7792;DHT22;3940;49.892;10.886;2022-09-03T06:21:06;17.00;99.90
7792;DHT22;3940;49.892;10.886;2022-09-03T06:23:52;17.00;99.90
7792;DHT22;3940;49.892;10.886;2022-09-03T06:26:39;16.90;99.90
7792;DHT22;3940;49.892;10.886;2022-09-03T06:29:24;17.00;99.90
7792;DHT22;3940;49.892;10.886;2022-09-03T06:32:09;16.80;99.90
7792;DHT22;3940;49.892;10.886;2022-09-03T06:34:53;16.70;99.90
7792;DHT22;3940;49.892;10.886;2022-09-03T06:37:39;16.70;99.90
7792;DHT22;3940;49.892;10.886;2022-09-03T06:40:23;17.00;99.90
7792;DHT22;3940;49.892;10.886;2022-09-03T06:43:09;16.90;99.90
7792;DHT22;3940;49.892;10.886;2022-09-03T06:45:56;16.80;99.90
7792;DHT22;3940;49.892;10.886;2022-09-03T06:48:41;16.90;99.90
7792;DHT22;3940;49.892;10.886;2022-09-03T06:51:28;16.90;99.90
7792;DHT22;3940;49.892;10.886;2022-09-03T06:54:13;17.10;99.90
7792;DHT22;3940;49.892;10.886;2022-09-03T06:56:58;17.20;99.90
7792;DHT22;3940;49.892;10.886;2022-09-03T06:59:42;17.00;99.90
7792;DHT22;3940;49.892;10.886;2022-09-03T07:02:27;17.10;99.90
7792;DHT22;3940;49.892;10.886;2022-09-03T07:05:12;17.30;99.90
7792;DHT22;3940;49.892;10.886;2022-09-03T07:07:56;17.60;99.90
7792;DHT22;3940;49.892;10.886;2022-09-03T07:10:45;17.70;99.90
7792;DHT22;3940;49.892;10.886;2022-09-03T07:13:31;18.00;99.90
7792;DHT22;3940;49.892;10.886;2022-09-03T07:16:20;18.10;99.90
7792;DHT22;3940;49.892;10.886;2022-09-03T07:19:05;18.40;99.90
7792;DHT22;3940;49.892;10.886;2022-09-03T07:21:50;18.40;99.90
7792;DHT22;3940;49.892;10.886;2022-09-03T07:24:35;18.30;99.90
7792;DHT22;3940;49.892;10.886;2022-09-03T07:27:20;18.40;99.90
7792;DHT22;3940;49.892;10.886;2022-09-03T07:30:06;18.60;99.90
7792;DHT22;3940;49.892;10.886;2022-09-03T07:32:53;18.60;99.90
7792;DHT22;3940;49.892;10.886;2022-09-03T07:35:38;18.40;99.90
7792;DHT22;3940;49.892;10.886;2022-09-03T07:38:22;18.40;99.90
7792;DHT22;3940;49.892;10.886;2022-09-03T07:41:08;18.40;99.90
7792;DHT22;3940;49.892;10.886;2022-09-03T07:43:53;18.50;99.90
7792;DHT22;3940;49.892;10.886;2022-09-03T07:46:37;18.30;99.90
7792;DHT22;3940;49.892;10.886;2022-09-03T07:49:25;18.20;99.90
7792;DHT22;3940;49.892;10.886;2022-09-03T07:52:09;18.30;99.90
7792;DHT22;3940;49.892;10.886;2022-09-03T07:54:54;18.70;99.90
7792;DHT22;3940;49.892;10.886;2022-09-03T07:57:39;18.70;99.90
7792;DHT22;3940;49.892;10.886;2022-09-03T08:00:23;18.90;99.90
7792;DHT22;3940;49.892;10.886;2022-09-03T08:03:08;19.20;99.90
7792;DHT22;3940;49.892;10.886;2022-09-03T08:05:53;19.20;99.90
7792;DHT22;3940;49.892;10.886;2022-09-03T08:08:39;19.40;99.90
7792;DHT22;3940;49.892;10.886;2022-09-03T08:11:24;19.30;99.90
7792;DHT22;3940;49.892;10.886;2022-09-03T08:14:11;19.50;99.90
7792;DHT22;3940;49.892;10.886;2022-09-03T08:16:56;19.20;99.90
7792;DHT22;3940;49.892;10.886;2022-09-03T08:19:43;19.40;99.90
7792;DHT22;3940;49.892;10.886;2022-09-03T08:22:29;19.50;99.90
7792;DHT22;3940;49.892;10.886;2022-09-03T08:25:13;19.60;99.90
7792;DHT22;3940;49.892;10.886;2022-09-03T08:27:58;19.80;99.90
7792;DHT22;3940;49.892;10.886;2022-09-03T08:30:43;20.00;99.90
7792;DHT22;3940;49.892;10.886;2022-09-03T08:33:28;20.10;99.90
7792;DHT22;3940;49.892;10.886;2022-09-03T08:36:23;19.90;99.90
7792;DHT22;3940;49.892;10.886;2022-09-03T08:39:09;20.10;99.90
7792;DHT22;3940;49.892;10.886;2022-09-03T08:42:13;20.10;99.90
7792;DHT22;3940;49.892;10.886;2022-09-03T08:45:01;20.20;99.90
7792;DHT22;3940;49.892;10.886;2022-09-03T08:50:50;20.20;99.90
7792;DHT22;3940;49.892;10.886;2022-09-03T08:53:45;20.20;99.90
7792;DHT22;3940;49.892;10.886;2022-09-03T08:56:36;20.20;99.90
7792;DHT22;3940;49.892;10.886;2022-09-03T08:59:22;20.40;99.90
7792;DHT22;3940;49.892;10.886;2022-09-03T09:02:39;20.30;99.90
7792;DHT22;3940;49.892;10.886;2022-09-03T09:05:56;20.30;99.90
7792;DHT22;3940;49.892;10.886;2022-09-03T09:08:58;20.80;99.90
7792;DHT22;3940;49.892;10.886;2022-09-03T09:15:04;20.60;99.90
7792;DHT22;3940;49.892;10.886;2022-09-03T09:18:12;20.60;99.90
7792;DHT22;3940;49.892;10.886;2022-09-03T09:21:12;20.90;99.90
7792;DHT22;3940;49.892;10.886;2022-09-03T09:24:02;21.00;99.90
7792;DHT22;3940;49.892;10.886;2022-09-03T09:26:48;21.10;99.90
7792;DHT22;3940;49.892;10.886;2022-09-03T09:29:37;21.20;99.90
7792;DHT22;3940;49.892;10.886;2022-09-03T09:32:22;21.10;99.90
7792;DHT22;3940;49.892;10.886;2022-09-03T09:35:09;21.40;99.90
7792;DHT22;3940;49.892;10.886;2022-09-03T09:37:55;21.60;99.90
7792;DHT22;3940;49.892;10.886;2022-09-03T09:40:43;21.80;99.90
7792;DHT22;3940;49.892;10.886;2022-09-03T09:43:28;21.90;99.90
7792;DHT22;3940;49.892;10.886;2022-09-03T09:46:18;21.90;99.90
7792;DHT22;3940;49.892;10.886;2022-09-03T09:49:31;22.50;99.90
7792;DHT22;3940;49.892;10.886;2022-09-03T09:52:15;22.60;99.90
7792;DHT22;3940;49.892;10.886;2022-09-03T09:55:13;23.00;99.80
7792;DHT22;3940;49.892;10.886;2022-09-03T09:58:06;23.10;99.30
7792;DHT22;3940;49.892;10.886;2022-09-03T10:00:57;22.70;98.30
7792;DHT22;3940;49.892;10.886;2022-09-03T10:03:53;23.10;97.90
7792;DHT22;3940;49.892;10.886;2022-09-03T10:06:39;23.70;96.00
7792;DHT22;3940;49.892;10.886;2022-09-03T10:09:40;24.00;94.70
7792;DHT22;3940;49.892;10.886;2022-09-03T10:12:41;23.90;94.40
7792;DHT22;3940;49.892;10.886;2022-09-03T10:15:39;23.60;93.90
7792;DHT22;3940;49.892;10.886;2022-09-03T10:18:44;23.60;95.40
7792;DHT22;3940;49.892;10.886;2022-09-03T10:21:52;23.60;94.40
7792;DHT22;3940;49.892;10.886;2022-09-03T10:24:51;23.50;93.50
7792;DHT22;3940;49.892;10.886;2022-09-03T10:27:36;23.10;94.70
7792;DHT22;3940;49.892;10.886;2022-09-03T10:30:22;23.90;93.90
7792;DHT22;3940;49.892;10.886;2022-09-03T10:33:17;24.50;93.30
7792;DHT22;3940;49.892;10.886;2022-09-03T10:36:15;24.90;92.10
7792;DHT22;3940;49.892;10.886;2022-09-03T10:39:14;24.40;91.00
7792;DHT22;3940;49.892;10.886;2022-09-03T10:51:49;24.40;91.70
7792;DHT22;3940;49.892;10.886;2022-09-03T10:54:51;24.30;90.50
7792;DHT22;3940;49.892;10.886;2022-09-03T11:00:52;24.70;90.20
7792;DHT22;3940;49.892;10.886;2022-09-03T11:03:45;24.50;90.20
7792;DHT22;3940;49.892;10.886;2022-09-03T11:06:46;24.70;88.80
7792;DHT22;3940;49.892;10.886;2022-09-03T11:09:40;24.80;88.60
7792;DHT22;3940;49.892;10.886;2022-09-03T11:12:31;24.50;88.30
7792;DHT22;3940;49.892;10.886;2022-09-03T11:15:28;25.20;86.50
7792;DHT22;3940;49.892;10.886;2022-09-03T11:21:32;25.50;84.00
7792;DHT22;3940;49.892;10.886;2022-09-03T11:24:22;25.80;85.50
7792;DHT22;3940;49.892;10.886;2022-09-03T11:27:25;25.90;82.20
7792;DHT22;3940;49.892;10.886;2022-09-03T11:30:23;26.00;81.00
7792;DHT22;3940;49.892;10.886;2022-09-03T11:33:10;26.50;80.50
7792;DHT22;3940;49.892;10.886;2022-09-03T11:35:57;27.70;75.10
7792;DHT22;3940;49.892;10.886;2022-09-03T11:38:45;28.20;73.40
7792;DHT22;3940;49.892;10.886;2022-09-03T11:41:33;28.20;71.20
7792;DHT22;3940;49.892;10.886;2022-09-03T11:44:19;27.40;71.80
7792;DHT22;3940;49.892;10.886;2022-09-03T11:47:21;26.10;73.20
7792;DHT22;3940;49.892;10.886;2022-09-03T11:50:19;25.30;77.40
7792;DHT22;3940;49.892;10.886;2022-09-03T11:53:25;25.50;77.70
7792;DHT22;3940;49.892;10.886;2022-09-03T11:56:17;25.80;77.20
7792;DHT22;3940;49.892;10.886;2022-09-03T11:59:17;25.10;78.10
7792;DHT22;3940;49.892;10.886;2022-09-03T12:02:15;25.40;80.60
7792;DHT22;3940;49.892;10.886;2022-09-03T12:05:13;25.30;79.10
7792;DHT22;3940;49.892;10.886;2022-09-03T12:08:39;25.30;80.40
7792;DHT22;3940;49.892;10.886;2022-09-03T12:11:40;25.60;79.40
7792;DHT22;3940;49.892;10.886;2022-09-03T12:21:05;25.30;79.80
7792;DHT22;3940;49.892;10.886;2022-09-03T12:23:52;25.10;80.30
7792;DHT22;3940;49.892;10.886;2022-09-03T12:26:40;25.60;80.30
7792;DHT22;3940;49.892;10.886;2022-09-03T12:29:27;25.40;80.00
7792;DHT22;3940;49.892;10.886;2022-09-03T12:32:12;25.60;81.00
7792;DHT22;3940;49.892;10.886;2022-09-03T12:35:08;25.40;80.50
7792;DHT22;3940;49.892;10.886;2022-09-03T12:37:53;25.30;82.90
7792;DHT22;3940;49.892;10.886;2022-09-03T12:40:42;25.10;82.60
7792;DHT22;3940;49.892;10.886;2022-09-03T12:43:28;25.30;85.00
7792;DHT22;3940;49.892;10.886;2022-09-03T12:46:13;26.10;81.10
7792;DHT22;3940;49.892;10.886;2022-09-03T12:49:01;25.50;81.50
7792;DHT22;3940;49.892;10.886;2022-09-03T12:51:48;25.00;83.20
7792;DHT22;3940;49.892;10.886;2022-09-03T12:54:40;25.00;84.30
7792;DHT22;3940;49.892;10.886;2022-09-03T12:57:31;25.10;85.30
7792;DHT22;3940;49.892;10.886;2022-09-03T13:00:18;24.90;85.90
7792;DHT22;3940;49.892;10.886;2022-09-03T13:03:10;24.70;86.70
7792;DHT22;3940;49.892;10.886;2022-09-03T13:05:58;24.70;86.30
7792;DHT22;3940;49.892;10.886;2022-09-03T13:08:48;24.70;86.40
7792;DHT22;3940;49.892;10.886;2022-09-03T13:11:34;24.70;88.10
7792;DHT22;3940;49.892;10.886;2022-09-03T13:14:21;24.50;88.80
7792;DHT22;3940;49.892;10.886;2022-09-03T13:17:16;24.70;90.50
7792;DHT22;3940;49.892;10.886;2022-09-03T13:20:23;24.90;90.30
7792;DHT22;3940;49.892;10.886;2022-09-03T13:23:28;24.70;90.60
7792;DHT22;3940;49.892;10.886;2022-09-03T13:26:41;24.60;90.50
7792;DHT22;3940;49.892;10.886;2022-09-03T13:29:46;24.90;90.40
7792;DHT22;3940;49.892;10.886;2022-09-03T13:32:55;25.30;90.10
7792;DHT22;3940;49.892;10.886;2022-09-03T13:39:01;24.90;90.60
7792;DHT22;3940;49.892;10.886;2022-09-03T13:41:54;24.60;91.60
7792;DHT22;3940;49.892;10.886;2022-09-03T13:44:46;24.60;92.00
7792;DHT22;3940;49.892;10.886;2022-09-03T13:47:41;24.50;92.60
7792;DHT22;3940;49.892;10.886;2022-09-03T13:50:58;24.70;92.40
7792;DHT22;3940;49.892;10.886;2022-09-03T13:57:00;25.30;92.60
7792;DHT22;3940;49.892;10.886;2022-09-03T14:00:08;26.10;91.70
7792;DHT22;3940;49.892;10.886;2022-09-03T14:03:07;26.60;90.30
7792;DHT22;3940;49.892;10.886;2022-09-03T14:06:18;25.80;90.20
7792;DHT22;3940;49.892;10.886;2022-09-03T14:09:19;25.50;90.60
7792;DHT22;3940;49.892;10.886;2022-09-03T14:12:16;25.30;91.40
7792;DHT22;3940;49.892;10.886;2022-09-03T14:15:40;25.10;91.30
7792;DHT22;3940;49.892;10.886;2022-09-03T14:18:45;25.00;92.10
7792;DHT22;3940;49.892;10.886;2022-09-03T14:21:41;24.70;92.00
7792;DHT22;3940;49.892;10.886;2022-09-03T14:27:41;25.00;92.90
7792;DHT22;3940;49.892;10.886;2022-09-03T14:30:51;24.80;92.60
7792;DHT22;3940;49.892;10.886;2022-09-03T14:33:50;25.10;92.80
7792;DHT22;3940;49.892;10.886;2022-09-03T14:36:54;25.40;93.70
7792;DHT22;3940;49.892;10.886;2022-09-03T14:39:54;25.80;92.20
7792;DHT22;3940;49.892;10.886;2022-09-03T14:43:01;25.80;91.20
7792;DHT22;3940;49.892;10.886;2022-09-03T14:52:41;26.10;94.50
7792;DHT22;3940;49.892;10.886;2022-09-03T14:59:09;26.40;92.50
7792;DHT22;3940;49.892;10.886;2022-09-03T15:02:30;26.20;91.30
7792;DHT22;3940;49.892;10.886;2022-09-03T15:05:36;25.90;90.50
7792;DHT22;3940;49.892;10.886;2022-09-03T15:11:48;25.50;91.30
7792;DHT22;3940;49.892;10.886;2022-09-03T15:14:39;25.10;92.60
7792;DHT22;3940;49.892;10.886;2022-09-03T15:17:53;24.80;93.10
7792;DHT22;3940;49.892;10.886;2022-09-03T15:20:52;24.60;94.50
7792;DHT22;3940;49.892;10.886;2022-09-03T15:24:02;24.40;94.80
7792;DHT22;3940;49.892;10.886;2022-09-03T15:30:08;24.40;96.00
7792;DHT22;3940;49.892;10.886;2022-09-03T15:33:05;24.30;96.20
7792;DHT22;3940;49.892;10.886;2022-09-03T15:36:09;24.30;96.70
7792;DHT22;3940;49.892;10.886;2022-09-03T15:39:09;24.30;97.00
7792;DHT22;3940;49.892;10.886;2022-09-03T15:42:00;24.30;97.70
7792;DHT22;3940;49.892;10.886;2022-09-03T15:44:51;24.30;97.60
7792;DHT22;3940;49.892;10.886;2022-09-03T15:47:47;24.20;98.10
7792;DHT22;3940;49.892;10.886;2022-09-03T15:50:48;24.20;98.00
7792;DHT22;3940;49.892;10.886;2022-09-03T15:53:53;24.40;98.60
7792;DHT22;3940;49.892;10.886;2022-09-03T15:56:49;24.20;98.70
7792;DHT22;3940;49.892;10.886;2022-09-03T15:59:41;24.10;99.90
7792;DHT22;3940;49.892;10.886;2022-09-03T16:02:41;24.00;99.60
7792;DHT22;3940;49.892;10.886;2022-09-03T16:05:39;24.00;99.90
7792;DHT22;3940;49.892;10.886;2022-09-03T16:08:39;23.90;99.90
7792;DHT22;3940;49.892;10.886;2022-09-03T16:11:51;23.90;99.90
7792;DHT22;3940;49.892;10.886;2022-09-03T16:14:44;23.80;99.90
7792;DHT22;3940;49.892;10.886;2022-09-03T16:17:49;23.90;99.90
7792;DHT22;3940;49.892;10.886;2022-09-03T16:20:42;23.80;99.90
7792;DHT22;3940;49.892;10.886;2022-09-03T16:27:06;23.70;99.90
7792;DHT22;3940;49.892;10.886;2022-09-03T16:30:12;23.60;99.90
7792;DHT22;3940;49.892;10.886;2022-09-03T16:33:10;23.60;99.90
7792;DHT22;3940;49.892;10.886;2022-09-03T16:36:24;23.70;99.90
7792;DHT22;3940;49.892;10.886;2022-09-03T16:39:26;23.70;99.90
7792;DHT22;3940;49.892;10.886;2022-09-03T16:48:39;23.70;99.90
7792;DHT22;3940;49.892;10.886;2022-09-03T16:51:43;23.60;99.90
7792;DHT22;3940;49.892;10.886;2022-09-03T16:54:45;23.40;99.90
7792;DHT22;3940;49.892;10.886;2022-09-03T16:57:47;23.00;99.90
7792;DHT22;3940;49.892;10.886;2022-09-03T17:00:45;22.40;99.90
7792;DHT22;3940;49.892;10.886;2022-09-03T17:07:03;22.20;99.90
7792;DHT22;3940;49.892;10.886;2022-09-03T17:10:18;22.20;99.90
7792;DHT22;3940;49.892;10.886;2022-09-03T17:16:26;21.50;99.90
7792;DHT22;3940;49.892;10.886;2022-09-03T17:19:27;21.30;99.90
7792;DHT22;3940;49.892;10.886;2022-09-03T17:22:36;21.20;99.90
7792;DHT22;3940;49.892;10.886;2022-09-03T17:25:36;21.00;99.90
7792;DHT22;3940;49.892;10.886;2022-09-03T17:31:47;20.50;99.90
7792;DHT22;3940;49.892;10.886;2022-09-03T17:34:50;20.70;99.90
7792;DHT22;3940;49.892;10.886;2022-09-03T17:38:04;20.80;99.90
7792;DHT22;3940;49.892;10.886;2022-09-03T17:41:04;20.60;99.90
7792;DHT22;3940;49.892;10.886;2022-09-03T17:44:11;20.80;99.90
7792;DHT22;3940;49.892;10.886;2022-09-03T17:50:19;20.40;99.90
7792;DHT22;3940;49.892;10.886;2022-09-03T17:53:16;20.30;99.90
7792;DHT22;3940;49.892;10.886;2022-09-03T17:56:17;20.20;99.90
7792;DHT22;3940;49.892;10.886;2022-09-03T17:59:24;20.10;99.90
7792;DHT22;3940;49.892;10.886;2022-09-03T18:02:35;20.10;99.90
7792;DHT22;3940;49.892;10.886;2022-09-03T18:05:28;19.90;99.90
7792;DHT22;3940;49.892;10.886;2022-09-03T18:08:23;19.80;99.90
7792;DHT22;3940;49.892;10.886;2022-09-03T18:17:38;19.40;99.90
7792;DHT22;3940;49.892;10.886;2022-09-03T18:20:26;19.00;99.90
7792;DHT22;3940;49.892;10.886;2022-09-03T18:23:37;19.10;99.90
7792;DHT22;3940;49.892;10.886;2022-09-03T18:26:45;18.90;99.90
7792;DHT22;3940;49.892;10.886;2022-09-03T18:29:59;18.80;99.90
7792;DHT22;3940;49.892;10.886;2022-09-03T18:33:03;18.70;99.90
7792;DHT22;3940;49.892;10.886;2022-09-03T18:36:00;18.70;99.90
7792;DHT22;3940;49.892;10.886;2022-09-03T18:42:58;18.70;99.90
7792;DHT22;3940;49.892;10.886;2022-09-03T18:46:10;18.60;99.90
7792;DHT22;3940;49.892;10.886;2022-09-03T18:49:21;18.50;99.90
7792;DHT22;3940;49.892;10.886;2022-09-03T18:52:31;18.60;99.90
7792;DHT22;3940;49.892;10.886;2022-09-03T18:55:50;18.40;99.90
7792;DHT22;3940;49.892;10.886;2022-09-03T18:59:16;18.30;99.90
7792;DHT22;3940;49.892;10.886;2022-09-03T19:06:17;18.50;99.90
7792;DHT22;3940;49.892;10.886;2022-09-03T19:09:44;18.50;99.90
7792;DHT22;3940;49.892;10.886;2022-09-03T19:16:12;18.70;99.90
7792;DHT22;3940;49.892;10.886;2022-09-03T19:22:46;18.80;99.90
7792;DHT22;3940;49.892;10.886;2022-09-03T19:25:47;18.60;99.90
7792;DHT22;3940;49.892;10.886;2022-09-03T19:28:46;18.60;99.90
7792;DHT22;3940;49.892;10.886;2022-09-03T19:32:01;18.60;99.90
7792;DHT22;3940;49.892;10.886;2022-09-03T19:35:16;18.60;99.90
7792;DHT22;3940;49.892;10.886;2022-09-03T19:38:39;18.50;99.90
7792;DHT22;3940;49.892;10.886;2022-09-03T19:48:35;18.60;99.90
7792;DHT22;3940;49.892;10.886;2022-09-03T19:51:44;18.60;99.90
7792;DHT22;3940;49.892;10.886;2022-09-03T19:54:51;18.60;99.90
7792;DHT22;3940;49.892;10.886;2022-09-03T19:57:58;18.60;99.90
7792;DHT22;3940;49.892;10.886;2022-09-03T20:00:56;18.50;99.90
7792;DHT22;3940;49.892;10.886;2022-09-03T20:03:59;18.50;99.90
7792;DHT22;3940;49.892;10.886;2022-09-03T20:07:02;18.50;99.90
7792;DHT22;3940;49.892;10.886;2022-09-03T20:10:03;18.40;99.90
7792;DHT22;3940;49.892;10.886;2022-09-03T20:13:13;18.20;99.90
7792;DHT22;3940;49.892;10.886;2022-09-03T20:16:20;18.10;99.90
7792;DHT22;3940;49.892;10.886;2022-09-03T20:19:19;18.10;99.90
7792;DHT22;3940;49.892;10.886;2022-09-03T20:22:17;18.00;99.90
7792;DHT22;3940;49.892;10.886;2022-09-03T20:28:26;18.10;99.90
7792;DHT22;3940;49.892;10.886;2022-09-03T20:31:26;18.30;99.90
7792;DHT22;3940;49.892;10.886;2022-09-03T20:34:28;18.20;99.90
7792;DHT22;3940;49.892;10.886;2022-09-03T20:37:30;18.20;99.90
7792;DHT22;3940;49.892;10.886;2022-09-03T20:43:35;18.30;99.90
7792;DHT22;3940;49.892;10.886;2022-09-03T20:46:53;18.20;99.90
7792;DHT22;3940;49.892;10.886;2022-09-03T20:50:02;18.10;99.90
7792;DHT22;3940;49.892;10.886;2022-09-03T20:53:08;18.00;99.90
7792;DHT22;3940;49.892;10.886;2022-09-03T20:56:00;18.10;99.90